createdAt,value
2019-05-14T00:00:28.761Z,3.80
2019-05-14T00:01:28.743Z,8.00
2019-05-14T00:02:28.717Z,4.40
2019-05-14T00:03:30.990Z,4.10
2019-05-14T00:04:28.676Z,3.80
2019-05-14T00:05:28.658Z,3.90
2019-05-14T00:06:31.021Z,4.10
2019-05-14T00:07:28.612Z,4.00
2019-05-14T00:08:31.244Z,4.40
2019-05-14T00:09:28.571Z,3.50
2019-05-14T00:10:28.550Z,3.40
2019-05-14T00:11:28.532Z,3.30
2019-05-14T00:12:28.508Z,3.80
2019-05-14T00:13:28.500Z,2.80
2019-05-14T00:14:38.896Z,4.20
2019-05-14T00:15:28.442Z,3.30
2019-05-14T00:16:28.422Z,4.80
2019-05-14T00:17:28.402Z,2.80
2019-05-14T00:18:28.393Z,4.10
2019-05-14T00:19:28.356Z,3.30
2019-05-14T00:20:28.333Z,3.10
2019-05-14T00:21:28.313Z,4.40
2019-05-14T00:22:28.292Z,3.20
2019-05-14T00:23:28.295Z,3.40
2019-05-14T00:24:28.252Z,4.10
2019-05-14T00:25:28.233Z,4.50
2019-05-14T00:26:28.207Z,3.00
2019-05-14T00:27:28.185Z,4.00
2019-05-14T00:28:28.165Z,4.20
2019-05-14T00:29:28.158Z,3.20
2019-05-14T00:30:28.122Z,3.50
2019-05-14T00:31:28.100Z,5.50
2019-05-14T00:32:28.077Z,5.00
2019-05-14T00:33:28.056Z,3.30
2019-05-14T00:34:28.048Z,4.10
2019-05-14T00:35:28.017Z,4.60
2019-05-14T00:36:27.993Z,4.00
2019-05-14T00:37:27.971Z,4.90
2019-05-14T00:38:27.950Z,4.70
2019-05-14T00:39:27.941Z,3.50
2019-05-14T00:40:27.905Z,3.80
2019-05-14T00:41:27.885Z,3.50
2019-05-14T00:42:27.862Z,4.70
2019-05-14T00:43:27.839Z,3.90
2019-05-14T00:44:27.833Z,2.70
2019-05-14T00:45:27.797Z,2.90
2019-05-14T00:46:27.776Z,2.70
2019-05-14T00:47:27.754Z,4.80
2019-05-14T00:48:27.734Z,4.90
2019-05-14T00:49:27.731Z,5.10
2019-05-14T00:50:27.690Z,3.00
2019-05-14T00:51:27.670Z,5.90
2019-05-14T00:52:27.648Z,2.60
2019-05-14T00:53:27.626Z,4.40
2019-05-14T00:54:27.603Z,4.60
2019-05-14T00:55:27.597Z,5.30
2019-05-14T00:56:27.563Z,3.90
2019-05-14T00:57:27.553Z,3.70
2019-05-14T00:58:27.523Z,3.90
2019-05-14T00:59:27.496Z,5.10
2019-05-14T01:00:27.502Z,3.20
2019-05-14T01:01:27.454Z,3.30
2019-05-14T01:02:27.435Z,4.60
2019-05-14T01:03:27.408Z,3.60
2019-05-14T01:04:27.391Z,3.90
2019-05-14T01:05:27.381Z,4.80
2019-05-14T01:06:27.345Z,4.40
2019-05-14T01:07:27.325Z,4.50
2019-05-14T01:08:27.302Z,4.10
2019-05-14T01:09:27.283Z,4.00
2019-05-14T01:10:27.291Z,3.70
2019-05-14T01:11:27.238Z,3.60
2019-05-14T01:12:27.216Z,2.90
2019-05-14T01:13:27.195Z,3.10
2019-05-14T01:14:27.172Z,4.10
2019-05-14T01:15:27.150Z,4.50
2019-05-14T01:16:27.145Z,5.90
2019-05-14T01:17:27.109Z,3.80
2019-05-14T01:18:27.088Z,4.70
2019-05-14T01:19:27.068Z,4.20
2019-05-14T01:20:27.044Z,3.10
2019-05-14T01:21:27.034Z,4.70
2019-05-14T01:22:27.000Z,2.80
2019-05-14T01:23:26.977Z,3.00
2019-05-14T01:24:26.957Z,4.40
2019-05-14T01:25:26.939Z,4.80
2019-05-14T01:26:26.927Z,4.70
2019-05-14T01:27:26.891Z,6.50
2019-05-14T01:28:26.870Z,3.70
2019-05-14T01:29:26.849Z,3.70
2019-05-14T01:30:26.828Z,4.50
2019-05-14T01:31:26.820Z,3.90
2019-05-14T01:32:26.787Z,3.50
2019-05-14T01:33:26.763Z,6.00
2019-05-14T01:34:26.743Z,4.70
2019-05-14T01:35:26.721Z,3.60
2019-05-14T01:36:26.714Z,2.90
2019-05-14T01:37:26.679Z,3.50
2019-05-14T01:38:26.657Z,5.20
2019-05-14T01:39:26.635Z,4.80
2019-05-14T01:40:26.617Z,6.30
2019-05-14T01:41:26.606Z,3.90
2019-05-14T01:42:26.570Z,3.50
2019-05-14T01:43:26.547Z,3.40
2019-05-14T01:44:26.527Z,3.10
2019-05-14T01:45:28.406Z,4.40
2019-05-14T01:46:26.496Z,3.50
2019-05-14T01:47:26.460Z,3.90
2019-05-14T01:48:26.440Z,5.00
2019-05-14T01:49:26.417Z,3.20
2019-05-14T01:50:26.395Z,3.10
2019-05-14T01:51:26.391Z,6.00
2019-05-14T01:52:26.350Z,3.60
2019-05-14T01:53:26.329Z,3.90
2019-05-14T01:54:26.306Z,3.50
2019-05-14T01:55:26.284Z,3.10
2019-05-14T01:56:26.261Z,5.70
2019-05-14T01:57:26.253Z,3.50
2019-05-14T01:58:26.217Z,3.20
2019-05-14T01:59:26.196Z,3.40
2019-05-14T02:00:26.173Z,3.10
2019-05-14T02:01:26.155Z,3.70
2019-05-14T02:02:26.145Z,3.10
2019-05-14T02:03:26.109Z,3.80
2019-05-14T02:04:26.085Z,4.10
2019-05-14T02:05:26.062Z,3.30
2019-05-14T02:06:26.049Z,4.50
2019-05-14T02:07:26.033Z,5.40
2019-05-14T02:08:25.996Z,6.10
2019-05-14T02:09:25.977Z,3.40
2019-05-14T02:10:25.951Z,5.00
2019-05-14T02:11:25.930Z,3.20
2019-05-14T02:12:25.943Z,3.50
2019-05-14T02:13:25.890Z,5.00
2019-05-14T02:14:25.864Z,3.70
2019-05-14T02:15:37.213Z,3.30
2019-05-14T02:16:25.819Z,5.40
2019-05-14T02:17:25.796Z,4.30
2019-05-14T02:18:25.789Z,3.70
2019-05-14T02:19:25.752Z,4.80
2019-05-14T02:20:25.729Z,3.70
2019-05-14T02:21:25.707Z,3.50
2019-05-14T02:22:25.684Z,3.70
2019-05-14T02:23:25.704Z,4.70
2019-05-14T02:24:25.643Z,4.70
2019-05-14T02:25:25.623Z,4.40
2019-05-14T02:26:25.595Z,3.50
2019-05-14T02:27:25.574Z,4.60
2019-05-14T02:28:25.565Z,5.00
2019-05-14T02:29:25.530Z,4.20
2019-05-14T02:30:38.477Z,4.00
2019-05-14T02:31:29.031Z,4.00
2019-05-14T02:32:25.462Z,4.10
2019-05-14T02:33:25.455Z,6.10
2019-05-14T02:34:25.417Z,3.50
2019-05-14T02:35:25.395Z,4.90
2019-05-14T02:36:25.384Z,4.60
2019-05-14T02:37:25.351Z,4.30
2019-05-14T02:38:25.343Z,4.40
2019-05-14T02:39:25.304Z,4.30
2019-05-14T02:40:25.282Z,3.50
2019-05-14T02:41:25.262Z,3.30
2019-05-14T02:42:25.240Z,3.30
2019-05-14T02:43:25.229Z,3.70
2019-05-14T02:44:25.193Z,4.20
2019-05-14T02:45:25.173Z,5.80
2019-05-14T02:46:25.149Z,4.50
2019-05-14T02:47:25.125Z,3.30
2019-05-14T02:48:25.123Z,5.30
2019-05-14T02:49:25.081Z,4.50
2019-05-14T02:50:25.059Z,4.40
2019-05-14T02:51:25.038Z,4.30
2019-05-14T06:32:44.131Z,8.40
2019-05-14T06:33:44.094Z,6.40
2019-05-14T06:34:44.070Z,6.80
2019-05-14T06:35:44.064Z,4.60
2019-05-14T06:36:44.034Z,7.20
2019-05-14T06:37:44.003Z,6.40
2019-05-14T06:38:43.985Z,7.30
2019-05-14T06:39:43.976Z,6.90
2019-05-14T06:40:43.974Z,7.40
2019-05-14T06:41:53.298Z,9.40
2019-05-14T06:42:43.903Z,7.00
2019-05-14T06:43:43.893Z,6.80
2019-05-14T06:44:43.863Z,6.30
2019-05-14T06:45:43.853Z,4.90
2019-05-14T06:46:43.821Z,8.90
2019-05-14T06:47:43.801Z,5.10
2019-05-14T06:48:43.780Z,4.70
2019-05-14T06:49:43.761Z,6.80
2019-05-14T06:50:43.762Z,7.10
2019-05-14T06:51:43.725Z,4.70
2019-05-14T06:52:43.703Z,4.70
2019-05-14T06:53:43.686Z,8.40
2019-05-14T06:54:43.667Z,6.80
2019-05-14T06:55:43.646Z,5.70
2019-05-14T06:56:43.642Z,8.80
2019-05-14T06:57:43.608Z,5.90
2019-05-14T06:58:43.590Z,7.40
2019-05-14T06:59:43.570Z,5.60
2019-05-14T07:00:43.553Z,7.70
2019-05-14T07:01:43.548Z,6.20
2019-05-14T07:02:44.307Z,4.40
2019-05-14T07:03:43.498Z,7.20
2019-05-14T07:04:43.480Z,7.20
2019-05-14T07:05:43.458Z,5.00
2019-05-14T07:06:43.458Z,7.30
2019-05-14T07:07:43.423Z,4.90
2019-05-14T07:08:43.408Z,5.60
2019-05-14T07:09:43.385Z,7.30
2019-05-14T07:10:43.367Z,7.70
2019-05-14T07:11:43.374Z,5.90
2019-05-14T07:12:43.333Z,7.50
2019-05-14T07:13:43.321Z,7.00
2019-05-14T07:14:43.293Z,5.90
2019-05-14T07:15:43.282Z,5.80
2019-05-14T08:28:51.959Z,5.50
2019-05-14T08:29:51.921Z,8.00
2019-05-14T08:30:51.898Z,5.80
2019-05-14T08:31:51.874Z,5.80
2019-05-14T08:32:51.855Z,4.80
2019-05-14T08:33:51.836Z,5.30
2019-05-14T08:34:51.826Z,4.70
2019-05-14T08:35:51.793Z,5.60
2019-05-14T08:36:51.774Z,5.00
2019-05-14T08:38:04.653Z,3.80
2019-05-14T08:38:51.734Z,4.90
2019-05-14T08:39:51.729Z,6.70
2019-05-14T08:40:51.697Z,5.10
2019-05-14T08:41:59.480Z,4.50
2019-05-14T08:42:51.658Z,4.30
2019-05-14T08:43:51.640Z,4.60
2019-05-14T08:44:51.748Z,5.30
2019-05-14T08:45:51.602Z,4.30
2019-05-14T09:09:38.230Z,2.10
2019-05-14T09:10:36.217Z,3.80
2019-05-14T09:11:43.784Z,4.50
2019-05-14T09:12:38.601Z,3.40
2019-05-14T09:13:38.292Z,3.80
2019-05-14T09:14:43.178Z,3.30
2019-05-14T09:15:38.344Z,4.60
2019-05-14T09:16:45.537Z,4.50
2019-05-14T09:17:36.076Z,2.30
2019-05-14T09:18:38.263Z,3.70
2019-05-14T09:19:36.037Z,3.10
2019-05-14T09:20:38.056Z,3.10
2019-05-14T09:21:39.526Z,4.00
2019-05-14T09:22:35.986Z,4.10
2019-05-14T09:23:35.964Z,4.20
2019-05-14T09:24:38.437Z,2.30
2019-05-14T09:25:45.629Z,6.60
2019-05-14T09:26:35.923Z,2.30
2019-05-14T09:27:38.460Z,5.70
2019-05-14T09:28:35.882Z,4.20
2019-05-14T09:29:35.864Z,2.40
2019-05-14T09:30:37.971Z,2.60
2019-05-14T09:31:35.849Z,4.30
2019-05-14T09:32:38.532Z,3.30
2019-05-14T09:33:35.811Z,3.50
2019-05-14T09:34:35.787Z,4.50
2019-05-14T09:35:38.465Z,4.60
2019-05-14T09:36:35.753Z,2.50
2019-05-14T09:37:35.737Z,3.00
2019-05-14T09:38:41.646Z,2.90
2019-05-14T09:39:35.707Z,3.60
2019-05-14T09:40:35.704Z,3.60
2019-05-14T09:41:35.673Z,3.20
2019-05-14T09:42:35.656Z,4.20
2019-05-14T09:43:35.642Z,2.40
2019-05-14T09:44:35.626Z,2.60
2019-05-14T09:45:35.624Z,4.00
2019-05-14T09:46:35.593Z,2.80
2019-05-14T09:47:35.576Z,3.90
2019-05-14T09:48:37.844Z,3.10
2019-05-14T09:49:35.575Z,3.10
2019-05-14T09:50:35.547Z,4.30
2019-05-14T09:51:35.521Z,2.30
2019-05-14T09:52:35.498Z,2.10
2019-05-14T09:53:35.481Z,2.70
2019-05-14T09:54:35.470Z,4.10
2019-05-14T09:55:35.473Z,2.60
2019-05-14T09:56:35.444Z,2.60
2019-05-14T09:57:35.421Z,3.40
2019-05-14T09:58:35.403Z,5.00
2019-05-14T09:59:35.389Z,3.30
2019-05-14T10:00:35.373Z,3.00
2019-05-14T10:01:35.370Z,4.20
2019-05-14T10:02:35.340Z,2.60
2019-05-14T10:03:35.332Z,3.20
2019-05-14T10:04:35.309Z,3.30
2019-05-14T10:05:35.293Z,3.50
2019-05-14T10:06:35.291Z,3.10
2019-05-14T10:07:35.265Z,2.70
2019-05-14T10:08:35.247Z,3.40
2019-05-14T10:09:35.227Z,3.40
2019-05-14T10:10:35.217Z,2.20
2019-05-14T10:11:35.210Z,3.50
2019-05-14T10:12:42.579Z,3.10
2019-05-14T10:13:35.168Z,2.60
2019-05-14T10:14:35.152Z,3.40
2019-05-14T10:15:35.135Z,2.80
2019-05-14T10:16:35.133Z,4.40
2019-05-14T10:17:35.104Z,2.70
2019-05-14T10:18:35.087Z,2.60
2019-05-14T10:19:35.073Z,2.70
2019-05-14T10:20:41.246Z,2.70
2019-05-14T10:21:35.058Z,2.60
2019-05-14T10:22:35.027Z,3.90
2019-05-14T10:23:35.011Z,2.90
2019-05-14T10:24:34.993Z,3.30
2019-05-14T10:25:34.984Z,3.70
2019-05-14T10:26:34.986Z,3.40
2019-05-14T10:27:34.950Z,2.30
2019-05-14T10:28:34.932Z,2.70
2019-05-14T10:29:34.921Z,2.70
2019-05-14T10:30:34.902Z,4.20
2019-05-14T10:31:34.887Z,3.70
2019-05-14T10:32:34.886Z,3.50
2019-05-14T10:33:34.862Z,2.30
2019-05-14T10:34:34.846Z,3.80
2019-05-14T10:35:34.827Z,2.50
2019-05-14T10:36:34.810Z,2.20
2019-05-14T10:37:34.810Z,2.00
2019-05-14T10:38:34.792Z,3.20
2019-05-14T10:39:34.768Z,4.30
2019-05-14T10:40:34.753Z,3.00
2019-05-14T10:41:34.732Z,3.90
2019-05-14T10:42:34.733Z,3.30
2019-05-14T10:43:34.707Z,2.90
2019-05-14T10:44:34.689Z,2.40
2019-05-14T10:45:34.680Z,2.90
2019-05-14T10:46:34.659Z,4.70
2019-05-14T10:47:34.658Z,2.80
2019-05-14T10:48:34.626Z,2.70
2019-05-14T10:49:34.613Z,2.70
2019-05-14T10:50:44.890Z,2.10
2019-05-14T10:51:34.584Z,1.60
2019-05-14T10:52:34.582Z,3.10
2019-05-14T10:53:34.550Z,2.50
2019-05-14T10:54:34.538Z,1.90
2019-05-14T10:55:34.523Z,3.10
2019-05-14T10:56:34.506Z,3.30
2019-05-14T10:57:34.520Z,3.70
2019-05-14T10:58:34.483Z,3.40
2019-05-14T10:59:34.467Z,4.20
2019-05-14T11:00:34.449Z,2.10
2019-05-14T11:01:34.434Z,2.20
2019-05-14T11:02:34.434Z,2.10
2019-05-14T11:03:34.407Z,2.00
2019-05-14T11:04:34.715Z,2.20
2019-05-14T11:05:34.375Z,3.30
2019-05-14T11:06:34.358Z,3.00
2019-05-14T11:07:34.358Z,2.00
2019-05-14T11:08:34.329Z,1.50
2019-05-14T11:09:34.315Z,4.40
2019-05-14T11:10:34.323Z,5.40
2019-05-14T11:11:34.284Z,2.90
2019-05-14T11:12:34.305Z,1.90
2019-05-14T11:13:34.259Z,2.30
2019-05-14T11:14:34.251Z,2.40
2019-05-14T11:15:34.226Z,1.60
2019-05-14T11:16:34.212Z,4.70
2019-05-14T11:17:34.195Z,3.30
2019-05-14T11:18:34.200Z,2.80
2019-05-14T11:19:34.167Z,4.60
2019-05-14T11:20:34.158Z,3.30
2019-05-14T11:21:34.137Z,2.30
2019-05-14T11:22:34.127Z,2.30
2019-05-14T11:23:34.126Z,2.70
2019-05-14T11:24:34.094Z,2.80
2019-05-14T11:25:34.090Z,2.20
2019-05-14T11:26:34.067Z,2.70
2019-05-14T11:27:34.053Z,3.30
2019-05-14T11:28:34.055Z,1.70
2019-05-14T11:29:34.026Z,2.60
2019-05-14T11:30:34.014Z,3.00
2019-05-14T11:31:34.432Z,1.70
2019-05-14T11:32:33.989Z,3.30
2019-05-14T11:33:33.990Z,3.30
2019-05-14T11:34:33.959Z,2.40
2019-05-14T11:35:33.947Z,2.00
2019-05-14T11:36:33.934Z,2.20
2019-05-14T11:37:33.921Z,2.00
2019-05-14T11:38:37.389Z,2.30
2019-05-14T11:39:33.892Z,3.50
2019-05-14T11:40:33.883Z,2.70
2019-05-14T11:41:33.869Z,1.60
2019-05-14T11:42:33.874Z,2.10
2019-05-14T11:43:33.841Z,2.20
2019-05-14T11:44:33.840Z,1.80
2019-05-14T11:45:33.814Z,2.70
2019-05-14T11:46:44.508Z,2.50
2019-05-14T11:47:33.785Z,3.40
2019-05-14T11:48:33.772Z,2.20
2019-05-14T11:49:33.775Z,1.60
2019-05-14T11:50:33.747Z,2.00
2019-05-14T11:51:59.008Z,3.50
2019-05-14T11:52:33.716Z,3.30
2019-05-14T11:53:33.706Z,2.50
2019-05-14T11:54:33.701Z,1.90
2019-05-14T11:55:33.677Z,2.00
2019-05-14T11:56:33.660Z,1.90
2019-05-14T11:57:33.648Z,1.80
2019-05-14T11:58:33.658Z,2.90
2019-05-14T11:59:33.634Z,1.50
2019-05-14T12:00:33.604Z,3.10
2019-05-14T12:01:33.601Z,1.80
2019-05-14T12:02:33.578Z,3.20
2019-05-14T12:03:33.567Z,2.00
2019-05-14T12:04:33.565Z,2.40
2019-05-14T12:05:33.539Z,1.80
2019-05-14T12:06:33.527Z,1.60
2019-05-14T12:07:33.513Z,1.80
2019-05-14T12:08:33.495Z,1.90
2019-05-14T12:09:33.497Z,3.10
2019-05-14T12:10:33.472Z,3.30
2019-05-14T12:11:33.459Z,3.90
2019-05-14T12:12:33.442Z,2.60
2019-05-14T12:13:33.429Z,2.00
2019-05-14T12:14:33.436Z,2.50
2019-05-14T12:15:33.405Z,2.50
2019-05-14T12:16:33.390Z,2.40
2019-05-14T12:17:33.373Z,1.80
2019-05-14T12:18:33.361Z,2.50
2019-05-14T12:19:33.351Z,2.30
2019-05-14T12:20:33.348Z,1.70
2019-05-14T12:21:33.321Z,2.70
2019-05-14T12:22:33.307Z,2.20
2019-05-14T12:23:33.293Z,1.70
2019-05-14T12:24:33.280Z,1.50
2019-05-14T12:25:33.286Z,1.80
2019-05-14T12:26:33.255Z,2.80
2019-05-14T12:27:33.240Z,1.80
2019-05-14T12:28:33.226Z,3.20
2019-05-14T12:29:33.214Z,2.00
2019-05-14T12:30:33.217Z,1.40
2019-05-14T12:31:33.189Z,1.60
2019-05-14T12:32:33.176Z,3.80
2019-05-14T12:33:33.161Z,3.40
2019-05-14T12:34:33.151Z,3.10
2019-05-14T12:35:33.153Z,1.80
2019-05-14T12:36:33.120Z,2.00
2019-05-14T12:37:33.109Z,2.30
2019-05-14T12:38:33.094Z,3.10
2019-05-14T12:39:33.081Z,1.60
2019-05-14T12:40:33.082Z,1.60
2019-05-14T12:41:33.053Z,1.60
2019-05-14T12:42:33.046Z,2.10
2019-05-14T12:43:33.029Z,2.90
2019-05-14T12:44:33.014Z,1.60
2019-05-14T12:45:33.020Z,2.40
2019-05-14T12:46:32.989Z,2.00
2019-05-14T12:47:32.980Z,2.00
2019-05-14T12:48:32.964Z,2.80
2019-05-14T12:49:32.950Z,4.60
2019-05-14T12:50:32.957Z,1.30
2019-05-14T12:51:32.939Z,1.60
2019-05-14T12:52:32.915Z,2.30
2019-05-14T12:53:32.898Z,2.20
2019-05-14T12:54:32.888Z,2.00
2019-05-14T12:55:32.912Z,2.30
2019-05-14T12:56:32.862Z,1.80
2019-05-14T12:57:32.851Z,2.50
2019-05-14T12:58:32.838Z,1.60
2019-05-14T12:59:32.828Z,2.40
2019-05-14T13:00:32.815Z,1.60
2019-05-14T13:01:32.818Z,2.10
2019-05-14T13:02:32.793Z,3.20
2019-05-14T13:03:32.782Z,3.70
2019-05-14T13:04:32.767Z,2.50
2019-05-14T13:05:32.755Z,2.20
2019-05-14T13:06:32.759Z,1.80
2019-05-14T13:07:32.737Z,4.30
2019-05-14T13:08:32.722Z,1.30
2019-05-14T13:09:32.708Z,2.90
2019-05-14T13:10:32.698Z,1.30
2019-05-14T13:11:32.704Z,2.60
2019-05-14T13:12:32.675Z,2.10
2019-05-14T13:13:32.665Z,2.60
2019-05-14T13:14:32.660Z,2.70
2019-05-14T13:15:32.644Z,1.40
2019-05-14T13:16:32.651Z,1.90
2019-05-14T13:17:32.622Z,2.90
2019-05-14T13:18:32.613Z,2.70
2019-05-14T13:19:32.599Z,1.80
2019-05-14T13:20:32.587Z,1.90
2019-05-14T13:21:32.591Z,2.70
2019-05-14T13:22:44.730Z,2.00
2019-05-14T13:23:32.559Z,2.20
2019-05-14T13:24:32.547Z,2.00
2019-05-14T13:25:32.538Z,1.80
2019-05-14T13:26:32.540Z,2.20
2019-05-14T13:27:32.554Z,1.20
2019-05-14T13:28:32.528Z,4.20
2019-05-14T13:29:32.499Z,1.30
2019-05-14T13:30:32.493Z,2.20
2019-05-14T13:31:32.501Z,5.00
2019-05-14T13:32:32.471Z,2.30
2019-05-14T13:33:32.466Z,1.20
2019-05-14T13:34:32.458Z,2.10
2019-05-14T13:35:32.446Z,1.60
2019-05-14T13:36:32.431Z,2.40
2019-05-14T13:37:32.437Z,1.80
2019-05-14T13:38:32.415Z,2.10
2019-05-14T13:39:32.408Z,2.20
2019-05-14T13:40:32.400Z,1.80
2019-05-14T13:41:32.401Z,2.10
2019-05-14T13:42:32.395Z,1.80
2019-05-14T13:43:32.373Z,1.50
2019-05-14T13:44:32.365Z,3.10
2019-05-14T13:45:32.361Z,3.10
2019-05-14T13:46:32.353Z,2.30
2019-05-14T13:47:32.354Z,1.40
2019-05-14T13:48:32.331Z,2.30
2019-05-14T13:49:32.323Z,1.50
2019-05-14T13:50:32.318Z,3.50
2019-05-14T13:51:33.570Z,1.80
2019-05-14T13:52:32.317Z,1.50
2019-05-14T13:53:32.289Z,2.10
2019-05-14T13:54:32.284Z,1.90
2019-05-14T13:55:32.273Z,2.90
2019-05-14T13:56:32.269Z,1.60
2019-05-14T13:57:32.259Z,1.90
2019-05-14T13:58:32.263Z,2.20
2019-05-14T13:59:32.240Z,1.20
2019-05-14T14:00:32.234Z,2.50
2019-05-14T14:01:32.227Z,1.60
2019-05-14T14:02:32.236Z,2.10
2019-05-14T14:03:32.227Z,3.80
2019-05-14T14:04:32.206Z,2.50
2019-05-14T14:05:32.196Z,3.40
2019-05-14T14:06:32.189Z,2.10
2019-05-14T14:07:32.179Z,2.50
2019-05-14T14:08:32.185Z,1.70
2019-05-14T14:09:32.163Z,2.00
2019-05-14T14:10:36.774Z,2.30
2019-05-14T14:11:32.150Z,1.70
2019-05-14T14:12:32.573Z,1.20
2019-05-14T14:13:32.145Z,2.90
2019-05-14T14:14:32.128Z,1.80
2019-05-14T14:15:32.120Z,2.20
2019-05-14T14:16:32.117Z,2.40
2019-05-14T14:17:32.121Z,2.80
2019-05-14T14:18:32.130Z,1.20
2019-05-14T14:19:32.091Z,3.10
2019-05-14T14:20:32.087Z,1.30
2019-05-14T14:21:32.079Z,1.50
2019-05-14T14:22:32.070Z,1.80
2019-05-14T14:23:32.076Z,1.80
2019-05-14T14:24:32.055Z,1.40
2019-05-14T14:25:32.060Z,5.50
2019-05-14T14:26:32.043Z,1.70
2019-05-14T14:27:32.037Z,2.40
2019-05-14T14:28:32.043Z,2.50
2019-05-14T14:29:32.020Z,2.80
2019-05-14T14:30:32.011Z,3.00
2019-05-14T14:31:32.000Z,1.70
2019-05-14T14:32:31.997Z,1.80
2019-05-14T14:33:32.004Z,2.30
2019-05-14T14:34:31.979Z,2.20
2019-05-14T14:35:31.971Z,1.50
2019-05-14T14:36:31.963Z,2.30
2019-05-14T14:37:31.958Z,2.00
2019-05-14T14:38:31.999Z,2.00
2019-05-14T14:39:31.944Z,1.70
2019-05-14T14:40:31.932Z,2.80
2019-05-14T14:41:31.929Z,2.00
2019-05-14T14:42:35.559Z,2.40
2019-05-14T14:43:31.928Z,2.60
2019-05-14T14:44:31.911Z,2.20
2019-05-14T14:45:31.923Z,1.90
2019-05-14T14:46:31.904Z,1.90
2019-05-14T14:47:31.887Z,1.80
2019-05-14T14:48:31.895Z,1.90
2019-05-14T14:49:31.884Z,2.90
2019-05-14T14:50:31.870Z,1.10
2019-05-14T14:51:31.869Z,2.50
2019-05-14T14:52:31.862Z,2.70
2019-05-14T14:53:51.064Z,2.90
2019-05-14T14:54:31.843Z,2.10
2019-05-14T14:55:31.835Z,2.20
2019-05-14T14:56:31.825Z,1.20
2019-05-14T14:57:31.826Z,1.80
2019-05-14T14:58:31.810Z,1.40
2019-05-14T14:59:31.814Z,1.20
2019-05-14T15:00:31.794Z,1.40
2019-05-14T15:01:31.787Z,2.00
2019-05-14T15:02:31.781Z,2.60
2019-05-14T15:03:31.785Z,2.40
2019-05-14T15:04:31.803Z,1.70
2019-05-14T15:05:31.774Z,1.50
2019-05-14T15:06:31.798Z,2.00
2019-05-14T15:07:31.787Z,2.50
2019-05-14T15:08:31.737Z,1.10
2019-05-14T15:09:31.761Z,2.70
2019-05-14T15:10:31.724Z,2.70
2019-05-14T15:11:31.717Z,1.40
2019-05-14T15:12:35.221Z,2.70
2019-05-14T15:13:31.703Z,3.00
2019-05-14T15:14:31.724Z,3.20
2019-05-14T15:15:41.021Z,0.90
2019-05-14T15:16:31.684Z,2.80
2019-05-14T15:17:31.676Z,1.90
2019-05-14T15:18:31.673Z,1.60
2019-05-14T15:19:31.668Z,2.30
2019-05-14T15:20:31.671Z,1.20
2019-05-14T15:21:31.652Z,2.00
2019-05-14T15:22:31.651Z,1.20
2019-05-14T15:23:31.637Z,2.70
2019-05-14T15:24:31.628Z,1.80
2019-05-14T15:25:31.639Z,3.10
2019-05-14T15:26:31.620Z,2.50
2019-05-14T15:27:31.615Z,2.90
2019-05-14T15:28:31.604Z,1.90
2019-05-14T15:29:31.598Z,2.20
2019-05-14T15:30:31.606Z,3.10
2019-05-14T15:31:31.586Z,2.20
2019-05-14T15:32:31.578Z,2.10
2019-05-14T15:33:31.576Z,1.30
2019-05-14T15:34:31.573Z,3.00
2019-05-14T15:35:31.578Z,1.80
2019-05-14T15:36:31.551Z,1.20
2019-05-14T15:37:31.816Z,1.10
2019-05-14T15:38:31.545Z,2.30
2019-05-14T15:39:31.541Z,2.40
2019-05-14T15:40:31.570Z,2.50
2019-05-14T15:41:31.539Z,1.80
2019-05-14T15:42:31.522Z,1.50
2019-05-14T15:43:31.515Z,3.20
2019-05-14T15:44:47.640Z,9.40
2019-05-14T15:45:31.505Z,23.60
2019-05-14T15:46:31.513Z,21.00
2019-05-14T15:47:31.492Z,10.70
2019-05-14T15:48:31.491Z,7.20
2019-05-14T15:49:31.480Z,6.40
2019-05-14T15:50:32.751Z,6.20
2019-05-14T15:51:31.492Z,2.60
2019-05-14T15:52:31.465Z,1.20
2019-05-14T15:53:31.459Z,1.90
2019-05-14T15:54:42.474Z,1.60
2019-05-14T15:55:31.452Z,2.60
2019-05-14T15:56:31.454Z,1.50
2019-05-14T15:57:31.439Z,2.20
2019-05-14T15:58:31.432Z,2.50
2019-05-14T15:59:31.425Z,3.30
2019-05-14T16:00:31.475Z,1.40
2019-05-14T16:01:31.429Z,1.50
2019-05-14T16:02:31.442Z,2.50
2019-05-14T16:03:31.404Z,1.00
2019-05-14T16:04:31.404Z,1.80
2019-05-14T16:05:31.397Z,1.40
2019-05-14T16:06:31.400Z,1.50
2019-05-14T16:07:31.379Z,2.00
2019-05-14T16:08:31.372Z,1.70
2019-05-14T16:09:31.370Z,1.00
2019-05-14T16:10:31.598Z,2.50
2019-05-14T16:11:31.375Z,2.20
2019-05-14T16:12:32.357Z,2.30
2019-05-14T16:13:31.354Z,1.70
2019-05-14T16:14:31.340Z,3.00
2019-05-14T16:15:31.337Z,0.90
2019-05-14T16:16:31.356Z,3.10
2019-05-14T16:18:00.214Z,1.90
2019-05-14T16:18:31.319Z,2.40
2019-05-14T16:19:31.310Z,2.60
2019-05-14T16:20:31.313Z,1.80
2019-05-14T16:21:31.325Z,2.60
2019-05-14T16:22:31.298Z,1.90
2019-05-14T16:23:31.291Z,1.90
2019-05-14T16:24:31.285Z,2.00
2019-05-14T16:25:32.028Z,1.60
2019-05-14T16:26:31.287Z,2.00
2019-05-14T16:27:31.272Z,1.80
2019-05-14T16:28:31.263Z,1.50
2019-05-14T16:29:41.325Z,2.30
2019-05-14T16:30:31.265Z,1.70
2019-05-14T16:31:31.760Z,2.00
2019-05-14T16:32:31.240Z,1.90
2019-05-14T16:33:31.239Z,2.70
2019-05-14T16:34:31.234Z,1.80
2019-05-14T16:35:31.231Z,1.40
2019-05-14T16:36:31.236Z,1.20
2019-05-14T16:37:31.215Z,1.30
2019-05-14T16:38:31.209Z,2.20
2019-05-14T16:39:31.204Z,2.10
2019-05-14T16:40:31.206Z,1.30
2019-05-14T16:41:31.250Z,1.00
2019-05-14T16:42:31.189Z,2.20
2019-05-14T16:43:32.452Z,1.50
2019-05-14T16:44:31.174Z,1.80
2019-05-14T16:45:31.174Z,2.60
2019-05-14T16:46:31.176Z,1.70
2019-05-14T16:47:31.158Z,1.40
2019-05-14T16:48:31.152Z,2.60
2019-05-14T16:49:33.979Z,3.30
2019-05-14T16:50:31.141Z,3.30
2019-05-14T16:51:31.152Z,1.30
2019-05-14T16:52:31.126Z,1.70
2019-05-14T16:53:31.121Z,2.20
2019-05-14T16:54:31.121Z,1.10
2019-05-14T16:55:31.113Z,2.20
2019-05-14T16:56:31.102Z,1.20
2019-05-14T16:57:31.110Z,2.10
2019-05-14T16:58:31.091Z,2.00
2019-05-14T16:59:31.084Z,1.50
2019-05-14T17:00:34.495Z,1.90
2019-05-14T17:01:33.742Z,2.60
2019-05-14T17:02:31.081Z,3.20
2019-05-14T17:03:31.060Z,1.70
2019-05-14T17:04:31.053Z,2.40
2019-05-14T17:05:31.044Z,3.10
2019-05-14T17:06:34.556Z,3.40
2019-05-14T17:07:31.046Z,1.10
2019-05-14T17:08:31.026Z,1.30
2019-05-14T17:09:31.019Z,1.60
2019-05-14T17:10:31.019Z,1.40
2019-05-14T17:11:31.008Z,2.30
2019-05-14T17:12:48.326Z,1.50
2019-05-14T17:13:30.994Z,2.70
2019-05-14T17:14:30.985Z,2.30
2019-05-14T17:15:30.978Z,2.70
2019-05-14T17:16:30.971Z,1.10
2019-05-14T17:17:30.979Z,2.10
2019-05-14T17:18:30.959Z,2.50
2019-05-14T17:19:30.957Z,2.70
2019-05-14T17:20:30.944Z,2.50
2019-05-14T17:21:30.938Z,2.00
2019-05-14T17:22:33.694Z,3.60
2019-05-14T17:23:30.939Z,1.30
2019-05-14T17:24:30.917Z,1.10
2019-05-14T17:25:30.910Z,1.30
2019-05-14T17:26:30.900Z,2.60
2019-05-14T17:27:30.903Z,1.00
2019-05-14T17:28:30.898Z,1.40
2019-05-14T17:29:30.879Z,1.20
2019-05-14T17:30:30.872Z,1.80
2019-05-14T17:31:31.268Z,1.80
2019-05-14T17:32:30.854Z,2.00
2019-05-14T17:33:30.872Z,2.70
2019-05-14T17:34:30.838Z,1.80
2019-05-14T17:35:30.832Z,2.00
2019-05-14T17:36:30.821Z,1.10
2019-05-14T17:37:30.814Z,1.60
2019-05-14T17:38:30.826Z,1.80
2019-05-14T17:39:30.794Z,1.40
2019-05-14T17:40:30.789Z,1.30
2019-05-14T17:41:30.776Z,4.10
2019-05-14T17:42:30.773Z,2.50
2019-05-14T17:43:30.776Z,1.30
2019-05-14T17:44:30.747Z,1.90
2019-05-14T17:45:30.736Z,1.40
2019-05-14T17:46:30.727Z,2.30
2019-05-14T17:47:30.724Z,4.10
2019-05-14T17:48:30.705Z,1.20
2019-05-14T17:49:30.715Z,2.40
2019-05-14T17:50:30.688Z,1.40
2019-05-14T17:51:30.673Z,1.70
2019-05-14T17:52:30.677Z,1.80
2019-05-14T17:53:30.649Z,1.60
2019-05-14T17:54:30.655Z,1.30
2019-05-14T17:55:43.476Z,1.40
2019-05-14T17:56:30.616Z,2.50
2019-05-14T17:57:35.123Z,2.10
2019-05-14T17:58:30.592Z,2.40
2019-05-14T17:59:33.463Z,1.80
2019-05-14T18:00:30.566Z,1.40
2019-05-14T18:01:30.560Z,2.90
2019-05-14T18:02:30.542Z,0.80
2019-05-14T18:03:30.587Z,1.60
2019-05-14T18:04:30.528Z,1.10
2019-05-14T18:05:30.557Z,1.20
2019-05-14T18:06:30.486Z,1.90
2019-05-14T18:07:30.473Z,1.40
2019-05-14T18:08:30.458Z,1.60
2019-05-14T18:09:30.456Z,1.70
2019-05-14T18:10:30.434Z,1.20
2019-05-14T18:11:30.416Z,1.80
2019-05-14T18:12:30.879Z,3.00
2019-05-14T18:13:30.386Z,1.80
2019-05-14T18:14:30.387Z,1.40
2019-05-14T18:15:30.359Z,1.10
2019-05-14T18:16:30.344Z,2.90
2019-05-14T18:17:30.331Z,1.20
2019-05-14T18:18:30.317Z,1.30
2019-05-14T18:19:30.336Z,3.20
2019-05-14T18:20:30.287Z,1.70
2019-05-14T18:21:30.271Z,1.20
2019-05-14T18:22:30.255Z,1.80
2019-05-14T18:23:30.243Z,1.60
2019-05-14T18:24:30.231Z,2.10
2019-05-14T18:25:30.226Z,2.00
2019-05-14T18:26:30.196Z,1.20
2019-05-14T18:27:30.182Z,1.40
2019-05-14T18:28:30.165Z,2.40
2019-05-14T18:29:30.149Z,1.40
2019-05-14T18:30:30.152Z,1.40
2019-05-14T18:31:30.121Z,1.70
2019-05-14T18:32:30.105Z,3.20
2019-05-14T18:33:31.370Z,1.00